sensor_id;sensor_type;location;lat;lon;timestamp;pressure;altitude;pressure_sealevel;temperature;humidity
33265;BME280;31404;53.974;-1.086;2023-02-23T00:00:36;101671.14;;;3.47;100.00
33265;BME280;31404;53.974;-1.086;2023-02-23T00:05:36;101669.85;;;3.45;100.00
33265;BME280;31404;53.974;-1.086;2023-02-23T00:10:35;101674.92;;;4.05;100.00
33265;BME280;31404;53.974;-1.086;2023-02-23T00:15:35;101682.25;;;4.67;100.00
33265;BME280;31404;53.974;-1.086;2023-02-23T00:20:36;101686.26;;;3.74;100.00
33265;BME280;31404;53.974;-1.086;2023-02-23T00:30:34;101698.02;;;4.64;100.00
33265;BME280;31404;53.974;-1.086;2023-02-23T00:35:34;101701.78;;;5.13;100.00
33265;BME280;31404;53.974;-1.086;2023-02-23T00:40:35;101710.65;;;3.95;100.00
33265;BME280;31404;53.974;-1.086;2023-02-23T00:45:35;101714.54;;;4.58;100.00
33265;BME280;31404;53.974;-1.086;2023-02-23T00:50:34;101716.02;;;4.31;100.00
33265;BME280;31404;53.974;-1.086;2023-02-23T00:55:35;101717.79;;;3.82;100.00
33265;BME280;31404;53.974;-1.086;2023-02-23T01:00:34;101722.69;;;3.79;100.00
33265;BME280;31404;53.974;-1.086;2023-02-23T01:05:34;101727.40;;;4.10;100.00
33265;BME280;31404;53.974;-1.086;2023-02-23T01:15:34;101739.38;;;3.92;100.00
33265;BME280;31404;53.974;-1.086;2023-02-23T01:20:36;101743.17;;;4.10;100.00
33265;BME280;31404;53.974;-1.086;2023-02-23T01:25:34;101752.94;;;4.17;100.00
33265;BME280;31404;53.974;-1.086;2023-02-23T01:30:35;101768.96;;;4.02;100.00
33265;BME280;31404;53.974;-1.086;2023-02-23T01:35:34;101773.27;;;3.61;100.00
33265;BME280;31404;53.974;-1.086;2023-02-23T01:40:35;101778.61;;;4.04;100.00
33265;BME280;31404;53.974;-1.086;2023-02-23T01:45:35;101790.58;;;3.60;100.00
33265;BME280;31404;53.974;-1.086;2023-02-23T01:50:41;101794.56;;;2.43;100.00
33265;BME280;31404;53.974;-1.086;2023-02-23T01:55:34;101796.71;;;2.67;100.00
33265;BME280;31404;53.974;-1.086;2023-02-23T02:00:35;101797.01;;;1.65;100.00
33265;BME280;31404;53.974;-1.086;2023-02-23T02:05:36;101799.44;;;2.95;100.00
33265;BME280;31404;53.974;-1.086;2023-02-23T02:10:34;101796.32;;;3.40;100.00
33265;BME280;31404;53.974;-1.086;2023-02-23T02:55:38;101830.31;;;4.44;92.84
33265;BME280;31404;53.974;-1.086;2023-02-23T03:00:37;101834.61;;;3.67;95.64
33265;BME280;31404;53.974;-1.086;2023-02-23T03:15:40;101843.74;;;4.75;88.49
33265;BME280;31404;53.974;-1.086;2023-02-23T03:40:37;101870.57;;;3.13;94.80
33265;BME280;31404;53.974;-1.086;2023-02-23T03:45:34;101874.09;;;3.55;91.28
33265;BME280;31404;53.974;-1.086;2023-02-23T03:55:36;101877.45;;;4.67;85.79
33265;BME280;31404;53.974;-1.086;2023-02-23T04:05:35;101899.52;;;2.80;96.67
33265;BME280;31404;53.974;-1.086;2023-02-23T04:10:35;101905.36;;;3.80;92.86
33265;BME280;31404;53.974;-1.086;2023-02-23T04:15:37;101908.40;;;3.15;94.52
33265;BME280;31404;53.974;-1.086;2023-02-23T04:20:35;101909.73;;;2.84;96.57
33265;BME280;31404;53.974;-1.086;2023-02-23T04:25:35;101919.63;;;2.81;95.25
33265;BME280;31404;53.974;-1.086;2023-02-23T04:30:34;101932.46;;;3.31;92.21
33265;BME280;31404;53.974;-1.086;2023-02-23T04:35:34;101946.79;;;3.98;88.96
33265;BME280;31404;53.974;-1.086;2023-02-23T04:40:35;101951.71;;;3.99;88.27
33265;BME280;31404;53.974;-1.086;2023-02-23T04:45:35;101948.00;;;3.00;94.96
33265;BME280;31404;53.974;-1.086;2023-02-23T04:50:35;101954.36;;;3.75;93.20
33265;BME280;31404;53.974;-1.086;2023-02-23T04:55:35;101950.01;;;4.52;88.67
33265;BME280;31404;53.974;-1.086;2023-02-23T05:00:34;101960.83;;;4.25;89.98
33265;BME280;31404;53.974;-1.086;2023-02-23T05:05:34;101960.18;;;4.09;89.07
33265;BME280;31404;53.974;-1.086;2023-02-23T05:10:35;101973.58;;;3.61;90.33
33265;BME280;31404;53.974;-1.086;2023-02-23T05:15:35;101977.81;;;4.29;86.15
33265;BME280;31404;53.974;-1.086;2023-02-23T05:20:35;101981.30;;;3.89;87.02
33265;BME280;31404;53.974;-1.086;2023-02-23T05:25:36;101984.63;;;4.91;83.47
33265;BME280;31404;53.974;-1.086;2023-02-23T05:30:34;101994.91;;;3.77;87.90
33265;BME280;31404;53.974;-1.086;2023-02-23T05:40:35;101996.05;;;4.87;82.99
33265;BME280;31404;53.974;-1.086;2023-02-23T05:50:34;102010.96;;;4.80;82.80
33265;BME280;31404;53.974;-1.086;2023-02-23T05:55:35;102014.75;;;4.36;83.79
33265;BME280;31404;53.974;-1.086;2023-02-23T06:00:34;102018.40;;;4.34;83.44
33265;BME280;31404;53.974;-1.086;2023-02-23T06:05:34;102020.17;;;2.70;92.69
33265;BME280;31404;53.974;-1.086;2023-02-23T06:10:34;102017.84;;;3.51;89.93
33265;BME280;31404;53.974;-1.086;2023-02-23T06:15:35;102024.31;;;2.66;93.47
33265;BME280;31404;53.974;-1.086;2023-02-23T06:20:35;102033.08;;;4.76;85.01
33265;BME280;31404;53.974;-1.086;2023-02-23T06:25:36;102037.75;;;3.81;89.55
33265;BME280;31404;53.974;-1.086;2023-02-23T06:30:35;102044.30;;;4.37;85.65
33265;BME280;31404;53.974;-1.086;2023-02-23T06:35:34;102057.09;;;2.58;95.96
33265;BME280;31404;53.974;-1.086;2023-02-23T06:40:36;102065.05;;;2.71;96.86
33265;BME280;31404;53.974;-1.086;2023-02-23T06:45:35;102071.39;;;1.69;100.00
33265;BME280;31404;53.974;-1.086;2023-02-23T06:50:35;102071.30;;;1.63;100.00
33265;BME280;31404;53.974;-1.086;2023-02-23T06:55:39;102080.63;;;0.79;100.00
33265;BME280;31404;53.974;-1.086;2023-02-23T07:00:34;102077.46;;;0.79;100.00
33265;BME280;31404;53.974;-1.086;2023-02-23T07:05:35;102083.42;;;0.83;100.00
33265;BME280;31404;53.974;-1.086;2023-02-23T07:10:35;102093.76;;;1.02;100.00
33265;BME280;31404;53.974;-1.086;2023-02-23T07:15:36;102099.27;;;1.20;100.00
33265;BME280;31404;53.974;-1.086;2023-02-23T07:20:36;102101.21;;;1.48;100.00
33265;BME280;31404;53.974;-1.086;2023-02-23T07:25:35;102106.67;;;1.78;100.00
33265;BME280;31404;53.974;-1.086;2023-02-23T07:30:35;102117.87;;;1.04;100.00
33265;BME280;31404;53.974;-1.086;2023-02-23T07:35:35;102125.40;;;1.40;100.00
33265;BME280;31404;53.974;-1.086;2023-02-23T07:40:35;102131.16;;;0.66;100.00
33265;BME280;31404;53.974;-1.086;2023-02-23T07:45:35;102138.69;;;1.47;100.00
33265;BME280;31404;53.974;-1.086;2023-02-23T07:50:34;102133.18;;;1.16;100.00
33265;BME280;31404;53.974;-1.086;2023-02-23T07:55:34;102122.85;;;1.85;100.00
33265;BME280;31404;53.974;-1.086;2023-02-23T08:00:35;102134.06;;;1.26;100.00
33265;BME280;31404;53.974;-1.086;2023-02-23T08:05:35;102130.87;;;1.45;100.00
33265;BME280;31404;53.974;-1.086;2023-02-23T08:10:35;102124.36;;;1.94;100.00
33265;BME280;31404;53.974;-1.086;2023-02-23T08:15:35;102137.76;;;0.92;100.00
33265;BME280;31404;53.974;-1.086;2023-02-23T08:20:35;102131.27;;;1.16;100.00
33265;BME280;31404;53.974;-1.086;2023-02-23T08:25:35;102139.98;;;1.62;100.00
33265;BME280;31404;53.974;-1.086;2023-02-23T08:30:34;102148.88;;;0.73;100.00
33265;BME280;31404;53.974;-1.086;2023-02-23T08:35:34;102162.42;;;0.70;100.00
33265;BME280;31404;53.974;-1.086;2023-02-23T08:40:34;102163.79;;;1.00;100.00
33265;BME280;31404;53.974;-1.086;2023-02-23T08:45:36;102164.75;;;0.84;100.00
33265;BME280;31404;53.974;-1.086;2023-02-23T08:50:35;102176.00;;;1.53;100.00
33265;BME280;31404;53.974;-1.086;2023-02-23T08:55:36;102186.33;;;1.11;100.00
33265;BME280;31404;53.974;-1.086;2023-02-23T09:00:34;102189.72;;;1.06;100.00
33265;BME280;31404;53.974;-1.086;2023-02-23T09:05:36;102180.53;;;1.65;100.00
33265;BME280;31404;53.974;-1.086;2023-02-23T09:10:34;102173.51;;;3.02;98.06
33265;BME280;31404;53.974;-1.086;2023-02-23T09:15:34;102184.08;;;1.99;100.00
33265;BME280;31404;53.974;-1.086;2023-02-23T09:20:35;102200.22;;;2.40;97.05
33265;BME280;31404;53.974;-1.086;2023-02-23T09:30:35;102206.97;;;2.20;99.49
33265;BME280;31404;53.974;-1.086;2023-02-23T09:35:35;102212.37;;;2.57;96.57
33265;BME280;31404;53.974;-1.086;2023-02-23T09:40:42;102218.66;;;2.13;95.21
33265;BME280;31404;53.974;-1.086;2023-02-23T09:45:39;102224.04;;;2.29;96.54
33265;BME280;31404;53.974;-1.086;2023-02-23T09:50:35;102227.65;;;1.77;95.39
33265;BME280;31404;53.974;-1.086;2023-02-23T09:55:37;102224.18;;;3.82;90.07
33265;BME280;31404;53.974;-1.086;2023-02-23T10:00:38;102226.99;;;3.63;89.62
33265;BME280;31404;53.974;-1.086;2023-02-23T10:25:37;102232.00;;;3.40;90.08
33265;BME280;31404;53.974;-1.086;2023-02-23T10:30:34;102234.43;;;2.34;95.96
33265;BME280;31404;53.974;-1.086;2023-02-23T10:35:35;102242.47;;;1.93;97.92
33265;BME280;31404;53.974;-1.086;2023-02-23T10:40:34;102252.33;;;1.86;97.96
33265;BME280;31404;53.974;-1.086;2023-02-23T10:50:36;102255.24;;;2.39;97.91
33265;BME280;31404;53.974;-1.086;2023-02-23T10:55:35;102257.73;;;2.31;94.70
33265;BME280;31404;53.974;-1.086;2023-02-23T11:00:36;102262.72;;;2.47;93.26
33265;BME280;31404;53.974;-1.086;2023-02-23T11:10:33;102276.32;;;2.76;92.46
33265;BME280;31404;53.974;-1.086;2023-02-23T11:15:36;102273.89;;;2.33;95.48
33265;BME280;31404;53.974;-1.086;2023-02-23T11:20:36;102276.09;;;1.73;97.02
33265;BME280;31404;53.974;-1.086;2023-02-23T11:25:34;102277.40;;;2.29;95.16
33265;BME280;31404;53.974;-1.086;2023-02-23T11:30:36;102285.42;;;2.42;92.09
33265;BME280;31404;53.974;-1.086;2023-02-23T11:35:34;102283.03;;;3.65;86.62
33265;BME280;31404;53.974;-1.086;2023-02-23T11:40:34;102272.32;;;3.27;89.43
33265;BME280;31404;53.974;-1.086;2023-02-23T11:45:43;102269.55;;;2.82;89.62
33265;BME280;31404;53.974;-1.086;2023-02-23T11:50:35;102258.18;;;3.33;86.68
33265;BME280;31404;53.974;-1.086;2023-02-23T11:55:36;102248.23;;;4.16;83.47
33265;BME280;31404;53.974;-1.086;2023-02-23T12:00:34;102238.69;;;4.34;82.60
33265;BME280;31404;53.974;-1.086;2023-02-23T12:05:34;102230.75;;;4.01;83.41
33265;BME280;31404;53.974;-1.086;2023-02-23T12:10:38;102220.90;;;4.93;77.04
33265;BME280;31404;53.974;-1.086;2023-02-23T12:15:41;102216.69;;;4.26;80.75
33265;BME280;31404;53.974;-1.086;2023-02-23T12:40:37;102185.51;;;4.58;71.46
33265;BME280;31404;53.974;-1.086;2023-02-23T13:20:37;102171.76;;;5.00;62.96
33265;BME280;31404;53.974;-1.086;2023-02-23T13:30:34;102165.75;;;4.67;63.30
33265;BME280;31404;53.974;-1.086;2023-02-23T13:35:35;102161.77;;;4.53;64.36
33265;BME280;31404;53.974;-1.086;2023-02-23T14:00:35;102144.99;;;3.76;65.00
33265;BME280;31404;53.974;-1.086;2023-02-23T14:10:38;102123.30;;;5.42;61.16
33265;BME280;31404;53.974;-1.086;2023-02-23T14:35:41;102097.94;;;6.17;55.65
33265;BME280;31404;53.974;-1.086;2023-02-23T14:45:36;102084.55;;;5.82;57.29
33265;BME280;31404;53.974;-1.086;2023-02-23T14:50:35;102081.63;;;5.62;57.72
33265;BME280;31404;53.974;-1.086;2023-02-23T15:05:40;102061.54;;;7.64;53.59
33265;BME280;31404;53.974;-1.086;2023-02-23T15:10:36;102062.79;;;5.62;57.42
33265;BME280;31404;53.974;-1.086;2023-02-23T15:15:35;102060.39;;;6.72;56.60
33265;BME280;31404;53.974;-1.086;2023-02-23T15:20:35;102052.25;;;7.28;54.99
33265;BME280;31404;53.974;-1.086;2023-02-23T15:25:37;102059.96;;;5.80;56.71
33265;BME280;31404;53.974;-1.086;2023-02-23T15:40:35;102047.66;;;5.53;56.44
33265;BME280;31404;53.974;-1.086;2023-02-23T15:45:36;102036.47;;;6.78;54.60
33265;BME280;31404;53.974;-1.086;2023-02-23T15:55:36;102037.97;;;6.41;53.71
33265;BME280;31404;53.974;-1.086;2023-02-23T16:00:38;102034.08;;;6.37;53.73
33265;BME280;31404;53.974;-1.086;2023-02-23T16:05:35;102027.33;;;6.78;52.84
33265;BME280;31404;53.974;-1.086;2023-02-23T16:15:37;102035.78;;;7.16;53.42
33265;BME280;31404;53.974;-1.086;2023-02-23T16:20:37;102034.41;;;6.83;53.92
33265;BME280;31404;53.974;-1.086;2023-02-23T16:25:34;102032.49;;;6.90;53.36
33265;BME280;31404;53.974;-1.086;2023-02-23T16:35:37;102026.43;;;7.49;53.02
33265;BME280;31404;53.974;-1.086;2023-02-23T16:40:35;102030.04;;;7.49;53.75
33265;BME280;31404;53.974;-1.086;2023-02-23T16:45:35;102030.18;;;6.76;55.59
33265;BME280;31404;53.974;-1.086;2023-02-23T16:50:34;102025.09;;;7.28;54.62
33265;BME280;31404;53.974;-1.086;2023-02-23T16:55:37;102026.51;;;8.18;54.10
33265;BME280;31404;53.974;-1.086;2023-02-23T17:00:34;102027.03;;;6.00;58.16
33265;BME280;31404;53.974;-1.086;2023-02-23T17:05:34;102013.54;;;6.97;57.46
33265;BME280;31404;53.974;-1.086;2023-02-23T17:10:34;102014.63;;;6.46;58.14
33265;BME280;31404;53.974;-1.086;2023-02-23T17:15:38;102005.98;;;6.86;57.38
33265;BME280;31404;53.974;-1.086;2023-02-23T17:20:35;102004.55;;;6.25;59.76
33265;BME280;31404;53.974;-1.086;2023-02-23T17:30:35;102001.30;;;7.61;55.92
33265;BME280;31404;53.974;-1.086;2023-02-23T17:35:35;102001.88;;;7.33;61.04
33265;BME280;31404;53.974;-1.086;2023-02-23T17:40:35;102000.72;;;8.19;54.95
33265;BME280;31404;53.974;-1.086;2023-02-23T17:45:35;102002.93;;;7.83;54.86
33265;BME280;31404;53.974;-1.086;2023-02-23T17:50:35;102001.12;;;7.61;55.62
33265;BME280;31404;53.974;-1.086;2023-02-23T17:55:35;101993.82;;;7.58;55.79
33265;BME280;31404;53.974;-1.086;2023-02-23T18:00:35;101990.97;;;7.16;57.15
33265;BME280;31404;53.974;-1.086;2023-02-23T18:05:40;101988.75;;;6.63;57.87
33265;BME280;31404;53.974;-1.086;2023-02-23T18:10:35;101985.23;;;5.47;60.04
33265;BME280;31404;53.974;-1.086;2023-02-23T18:15:34;101989.32;;;5.63;58.92
33265;BME280;31404;53.974;-1.086;2023-02-23T18:20:34;101985.66;;;6.40;57.91
33265;BME280;31404;53.974;-1.086;2023-02-23T18:25:35;101982.51;;;6.48;57.19
33265;BME280;31404;53.974;-1.086;2023-02-23T18:30:35;101984.12;;;6.33;59.68
33265;BME280;31404;53.974;-1.086;2023-02-23T18:35:36;101976.70;;;6.79;57.74
33265;BME280;31404;53.974;-1.086;2023-02-23T18:40:35;101984.26;;;5.73;58.59
33265;BME280;31404;53.974;-1.086;2023-02-23T18:45:35;101976.07;;;5.15;60.85
33265;BME280;31404;53.974;-1.086;2023-02-23T18:50:35;101968.14;;;4.91;61.63
33265;BME280;31404;53.974;-1.086;2023-02-23T18:55:36;101966.27;;;5.17;61.69
33265;BME280;31404;53.974;-1.086;2023-02-23T19:00:35;101969.74;;;4.38;64.27
33265;BME280;31404;53.974;-1.086;2023-02-23T19:05:35;101965.04;;;3.37;67.20
33265;BME280;31404;53.974;-1.086;2023-02-23T19:10:34;101954.27;;;4.76;64.60
33265;BME280;31404;53.974;-1.086;2023-02-23T19:15:35;101951.84;;;3.57;67.78
33265;BME280;31404;53.974;-1.086;2023-02-23T19:20:34;101941.46;;;3.53;68.43
33265;BME280;31404;53.974;-1.086;2023-02-23T19:25:34;101928.22;;;3.94;67.76
33265;BME280;31404;53.974;-1.086;2023-02-23T19:30:34;101921.38;;;3.07;71.38
33265;BME280;31404;53.974;-1.086;2023-02-23T19:45:34;101915.59;;;2.23;75.85
33265;BME280;31404;53.974;-1.086;2023-02-23T19:50:34;101926.38;;;3.30;71.40
33265;BME280;31404;53.974;-1.086;2023-02-23T19:55:34;101925.79;;;2.37;76.58
33265;BME280;31404;53.974;-1.086;2023-02-23T20:00:35;101926.30;;;2.06;77.25
33265;BME280;31404;53.974;-1.086;2023-02-23T20:05:38;101917.64;;;2.77;75.18
33265;BME280;31404;53.974;-1.086;2023-02-23T20:10:36;101917.95;;;2.37;76.42
33265;BME280;31404;53.974;-1.086;2023-02-23T20:15:35;101913.97;;;3.31;74.48
33265;BME280;31404;53.974;-1.086;2023-02-23T20:20:34;101911.13;;;3.16;73.38
33265;BME280;31404;53.974;-1.086;2023-02-23T20:25:35;101909.03;;;3.53;73.07
33265;BME280;31404;53.974;-1.086;2023-02-23T20:30:35;101901.10;;;2.47;76.81
33265;BME280;31404;53.974;-1.086;2023-02-23T20:35:35;101899.62;;;1.43;81.14
33265;BME280;31404;53.974;-1.086;2023-02-23T20:40:29;101889.99;;;0.54;85.47
33265;BME280;31404;53.974;-1.086;2023-02-23T20:45:34;101885.46;;;0.99;84.22
33265;BME280;31404;53.974;-1.086;2023-02-23T20:50:35;101878.10;;;1.74;81.19
33265;BME280;31404;53.974;-1.086;2023-02-23T20:55:35;101872.88;;;2.29;78.93
33265;BME280;31404;53.974;-1.086;2023-02-23T21:00:35;101851.90;;;2.15;78.61
33265;BME280;31404;53.974;-1.086;2023-02-23T21:05:37;101844.89;;;2.45;77.47
33265;BME280;31404;53.974;-1.086;2023-02-23T21:10:37;101845.29;;;1.93;79.21
33265;BME280;31404;53.974;-1.086;2023-02-23T21:15:34;101838.70;;;2.57;78.93
33265;BME280;31404;53.974;-1.086;2023-02-23T21:20:36;101832.75;;;2.14;80.69
33265;BME280;31404;53.974;-1.086;2023-02-23T21:25:35;101821.90;;;1.66;82.82
33265;BME280;31404;53.974;-1.086;2023-02-23T21:30:35;101823.97;;;1.41;84.70
33265;BME280;31404;53.974;-1.086;2023-02-23T21:35:35;101816.04;;;2.92;80.04
33265;BME280;31404;53.974;-1.086;2023-02-23T21:40:35;101808.46;;;2.16;83.10
33265;BME280;31404;53.974;-1.086;2023-02-23T21:45:37;101803.30;;;2.85;81.50
33265;BME280;31404;53.974;-1.086;2023-02-23T21:50:34;101797.49;;;2.46;84.90
33265;BME280;31404;53.974;-1.086;2023-02-23T21:55:36;101793.89;;;2.28;87.03
33265;BME280;31404;53.974;-1.086;2023-02-23T22:00:35;101781.56;;;2.34;88.19
33265;BME280;31404;53.974;-1.086;2023-02-23T22:05:35;101782.08;;;1.63;92.16
33265;BME280;31404;53.974;-1.086;2023-02-23T22:10:35;101777.85;;;2.22;92.85
33265;BME280;31404;53.974;-1.086;2023-02-23T22:15:35;101772.63;;;1.20;98.15
33265;BME280;31404;53.974;-1.086;2023-02-23T22:20:35;101757.19;;;1.69;95.87
33265;BME280;31404;53.974;-1.086;2023-02-23T22:25:35;101747.37;;;2.14;93.38
33265;BME280;31404;53.974;-1.086;2023-02-23T22:30:35;101744.21;;;2.12;93.78
33265;BME280;31404;53.974;-1.086;2023-02-23T22:40:36;101715.09;;;1.51;97.97
33265;BME280;31404;53.974;-1.086;2023-02-23T22:45:35;101700.38;;;1.57;98.90
33265;BME280;31404;53.974;-1.086;2023-02-23T22:50:35;101692.60;;;1.88;98.38
33265;BME280;31404;53.974;-1.086;2023-02-23T22:55:34;101687.39;;;1.89;97.99
33265;BME280;31404;53.974;-1.086;2023-02-23T23:00:34;101681.06;;;1.24;100.00
33265;BME280;31404;53.974;-1.086;2023-02-23T23:05:34;101674.13;;;1.85;99.73
33265;BME280;31404;53.974;-1.086;2023-02-23T23:10:34;101661.18;;;1.65;100.00
33265;BME280;31404;53.974;-1.086;2023-02-23T23:15:34;101652.39;;;1.57;100.00
33265;BME280;31404;53.974;-1.086;2023-02-23T23:20:34;101637.97;;;1.23;100.00
33265;BME280;31404;53.974;-1.086;2023-02-23T23:25:35;101631.60;;;1.39;100.00
33265;BME280;31404;53.974;-1.086;2023-02-23T23:30:35;101628.07;;;2.01;100.00
33265;BME280;31404;53.974;-1.086;2023-02-23T23:35:35;101622.97;;;1.87;100.00
33265;BME280;31404;53.974;-1.086;2023-02-23T23:40:35;101613.91;;;1.36;100.00
33265;BME280;31404;53.974;-1.086;2023-02-23T23:50:35;101594.91;;;1.55;100.00
33265;BME280;31404;53.974;-1.086;2023-02-23T23:55:34;101589.70;;;1.56;100.00
